Calgary, Alberta

2:35 AM MDT on April 30, 2017 (GMT -0600)
Crescent Heights | | Change Station

Elev 3543 ft 51.06 °N, 114.07 °W | Updated 19 seconds ago

Overcast
Overcast
43.9 °F
Feels Like 44 °F
N
0.0
Wind Variable Wind from SE

Today
High -- | Low -- °F
--% Chance of Precip.
Yesterday
High -- | Low -- °F
Precip. -- in
Pressure 29.85 in
Visibility 15.0 miles
Clouds Mostly Cloudy 7700 ft
Windchill 44 °F
Dew Point 30 °F
Humidity 58%
Rainfall 0.00 in
Snow Depth Not available.
6:10 AM 8:57 PM
Waxing Crescent, 21% visible
METAR CYYC 300800Z 20005KT 15SM BKN077 07/M02 A2979 RMK AC7 SLP107
Pressure 29.85 in
Visibility 15.0 miles
Clouds Mostly Cloudy 7700 ft
Windchill 44 °F
Dew Point 30 °F
Humidity 58%
Rainfall 0.00 in
Snow Depth Not available.
6:10 AM 8:57 PM
Waxing Crescent, 21% visible
METAR CYYC 300800Z 20005KT 15SM BKN077 07/M02 A2979 RMK AC7 SLP107

Get Severe Weather Alerts

Thanks for signing up!

Be on the lookout for a verification email in your inbox.

You'll start receiving the daily forecast at 8 AM.

×

10-Day Weather Forecast

Almanac

Astronomy

Apr. 30, 2017 Rise Set
Actual Time
Civil Twilight
Nautical Twilight
Astronomical Twilight
Moon
Length of Visible Light
Length of Day
Tomorrow will be .
, % of the Moon is Illuminated

Today's Extremes

Country Highs Country Lows

Community

WunderPhotos

WunderBlog® & News

Nearby

Air Quality

  Air Quality AQ Index Pollutant
Not available.

Snow Depth

Station Depth Elevation

Earthquake Activity

City Distance Mag. Time & Date
Minimum magnitude displayed is 2.5.

Coastal Water Temperatures

Place Temperature

Stations

Nearby Weather Stations

Station Location Temp. Windchill Dew Point Humidity Wind Precip. Elev Updated Type
                   

Watches & Warnings

There are currently no watches in effect.